Observation data for Northfield on 05/27/2019      Previous  Date  Next       Current Mesonet Observations  Soil Data  Daily Summary Page  Observations in Plain Language
KNOR 270500Z 14009KT 21/18 A2984 RMK A01 T02120178  RH  085%=      5-min Rain = 0
KNOR 270505Z 14009KT 21/18 A2984 RMK A01 T02110178  RH  086%=      5-min Rain = 0
KNOR 270510Z 14010G15KT 21/18 A2984 RMK A01 T02110178  RH  086%=      5-min Rain = 0
KNOR 270515Z 14011KT 21/18 A2983 RMK A01 T02110178  RH  086%=      5-min Rain = 0
KNOR 270520Z 14011G16KT 21/18 A2983 RMK A01 T02110178  RH  086%=      5-min Rain = 0
KNOR 270525Z 14011G16KT 21/18 A2983 RMK A01 T02120179  RH  086%=      5-min Rain = 0
KNOR 270530Z 15011KT 21/18 A2983 RMK A01 T02110179  RH  086%=      5-min Rain = 0
KNOR 270535Z 14011KT 21/18 A2983 RMK A01 T02100179  RH  087%=      5-min Rain = 0
KNOR 270540Z 15011KT 21/18 A2983 RMK A01 T02100179  RH  087%=      5-min Rain = 0
KNOR 270545Z 15009KT 21/18 A2982 RMK A01 T02090179  RH  087%=      5-min Rain = 0
KNOR 270550Z 15007G13KT 21/18 A2983 RMK A01 T02080178  RH  088%=      5-min Rain = 0
KNOR 270555Z 15007KT 21/18 A2983 RMK A01 T02080179  RH  088%=      5-min Rain = 0
KNOR 270600Z 15003KT 21/18 A2984 RMK A01 T02080178  RH  088%=      5-min Rain = 0
KNOR 270605Z 16003KT 21/18 A2984 RMK A01 T02070178  RH  088%=      5-min Rain = 0
KNOR 270610Z 15003KT 21/18 A2984 RMK A01 T02070177  RH  088%=      5-min Rain = 0
KNOR 270615Z 15005KT 20/18 A2984 RMK A01 T02040177  RH  089%=      5-min Rain = 0
KNOR 270620Z 15007KT 20/18 A2984 RMK A01 T02020176  RH  090%=      5-min Rain = 0
KNOR 270625Z 15009KT 20/18 A2984 RMK A01 T02020177  RH  090%=      5-min Rain = 0
KNOR 270630Z 15010KT 20/18 A2983 RMK A01 T02030178  RH  090%=      5-min Rain = 0
KNOR 270635Z 15010G16KT 21/18 A2983 RMK A01 T02060178  RH  089%=      5-min Rain = 0
KNOR 270640Z 15010KT 21/18 A2983 RMK A01 T02080178  RH  088%=      5-min Rain = 0
KNOR 270645Z 16009KT 21/18 A2983 RMK A01 T02080178  RH  088%=      5-min Rain = 0
KNOR 270650Z 17007KT 21/18 A2983 RMK A01 T02090179  RH  087%=      5-min Rain = 0
KNOR 270655Z 18005KT 21/18 A2984 RMK A01 T02090178  RH  087%=      5-min Rain = 0
KNOR 270700Z 24004KT 21/18 A2985 RMK A01 T02080177  RH  087%=      5-min Rain = 0
KNOR 270705Z 30007KT 20/18 A2987 RMK A01 T02030176  RH  089%=      5-min Rain = 0
KNOR 270710Z 31007KT 20/18 A2988 RMK A01 T02000176  RH  091%=      5-min Rain = 0
KNOR 270715Z 32003KT 20/18 A2987 RMK A01 T01990177  RH  092%=      5-min Rain = 0
KNOR 270720Z 04002KT 20/18 A2986 RMK A01 T01980176  RH  092%=      5-min Rain = 0
KNOR 270725Z 32004KT 20/18 A2987 RMK A01 T01960175  RH  093%=      5-min Rain = 0
KNOR 270730Z 31001KT 20/18 A2987 RMK A01 T01960177  RH  093%=      5-min Rain = 0
KNOR 270735Z 10003KT 20/18 A2985 RMK A01 T01960176  RH  093%=      5-min Rain = 0
KNOR 270740Z 07001KT 20/18 A2986 RMK A01 T01950176  RH  093%=      5-min Rain = 0
KNOR 270745Z 13003KT 20/18 A2986 RMK A01 T01960177  RH  093%=      5-min Rain = 0
KNOR 270750Z 11005KT 20/18 A2985 RMK A01 T01970176  RH  092%=      5-min Rain = 0
KNOR 270755Z 11006KT 20/18 A2985 RMK A01 T01950175  RH  093%=      5-min Rain = 0
KNOR 270800Z 10004KT 19/18 A2985 RMK A01 T01930175  RH  094%=      5-min Rain = 0
KNOR 270805Z 10005KT 19/18 A2985 RMK A01 T01920175  RH  094%=      5-min Rain = 0
KNOR 270810Z 11006KT 19/18 A2985 RMK A01 T01920175  RH  094%=      5-min Rain = 0
KNOR 270815Z 12006KT 19/18 A2985 RMK A01 T01930176  RH  094%=      5-min Rain = 0
KNOR 270820Z 13007KT 20/18 A2984 RMK A01 T01950176  RH  094%=      5-min Rain = 0
KNOR 270825Z 14008KT 20/18 A2984 RMK A01 T01950175  RH  093%=      5-min Rain = 0
KNOR 270830Z 15008KT 19/17 A2984 RMK A01 T01940174  RH  093%=      5-min Rain = 0
KNOR 270835Z 15009KT 20/18 A2983 RMK A01 T01950175  RH  093%=      5-min Rain = 0
KNOR 270840Z 15009KT 20/18 A2983 RMK A01 T01970177  RH  093%=      5-min Rain = 0
KNOR 270845Z 16009KT 20/18 A2983 RMK A01 T01990177  RH  092%=      5-min Rain = 0
KNOR 270850Z 16009KT 20/18 A2983 RMK A01 T02000177  RH  091%=      5-min Rain = 0
KNOR 270855Z 16009KT 20/18 A2982 RMK A01 T02000177  RH  091%=      5-min Rain = 0
KNOR 270900Z 16009KT 20/18 A2982 RMK A01 T01990177  RH  091%=      5-min Rain = 0
KNOR 270905Z 16010KT 20/18 A2982 RMK A01 T01990177  RH  091%=      5-min Rain = 0
KNOR 270910Z 16010KT 20/18 A2982 RMK A01 T01990177  RH  091%=      5-min Rain = 0
KNOR 270915Z 16010KT 20/18 A2982 RMK A01 T01990176  RH  092%=      5-min Rain = 0
KNOR 270920Z 16009KT 20/18 A2982 RMK A01 T01980176  RH  092%=      5-min Rain = 0
KNOR 270925Z 17009KT 20/18 A2982 RMK A01 T01980176  RH  092%=      5-min Rain = 0
KNOR 270930Z 17010KT 20/18 A2982 RMK A01 T01980176  RH  092%=      5-min Rain = 0
KNOR 270935Z 16009KT 20/18 A2982 RMK A01 T01980176  RH  092%=      5-min Rain = 0
KNOR 270940Z 17009KT 20/18 A2982 RMK A01 T01970176  RH  092%=      5-min Rain = 0
KNOR 270945Z 16009KT 20/18 A2982 RMK A01 T01970175  RH  092%=      5-min Rain = 0
KNOR 270950Z 16009KT 20/18 A2981 RMK A01 T01960175  RH  092%=      5-min Rain = 0
KNOR 270955Z 16009KT 20/18 A2981 RMK A01 T01950175  RH  093%=      5-min Rain = 0
KNOR 271000Z 16010KT 20/18 A2981 RMK A01 T01950175  RH  093%=      5-min Rain = 0
KNOR 271005Z 16010KT 20/18 A2981 RMK A01 T01960176  RH  093%=      5-min Rain = 0
KNOR 271010Z 16009KT 20/18 A2981 RMK A01 T01970176  RH  092%=      5-min Rain = 0
KNOR 271015Z 16008KT 20/18 A2981 RMK A01 T01970176  RH  092%=      5-min Rain = 0
KNOR 271020Z 15006KT 20/18 A2981 RMK A01 T01970176  RH  092%=      5-min Rain = 0
KNOR 271025Z 15005KT 20/18 A2981 RMK A01 T01970176  RH  092%=      5-min Rain = 0
KNOR 271030Z 14005KT 20/18 A2981 RMK A01 T01970176  RH  092%=      5-min Rain = 0
KNOR 271035Z 13005KT 20/18 A2981 RMK A01 T01960175  RH  092%=      5-min Rain = 0
KNOR 271040Z 13005KT 20/18 A2982 RMK A01 T01950175  RH  093%=      5-min Rain = 0
KNOR 271045Z 13006KT 20/18 A2982 RMK A01 T01960175  RH  093%=      5-min Rain = 0
KNOR 271050Z 13006KT 20/18 A2982 RMK A01 T01960176  RH  092%=      5-min Rain = 0
KNOR 271055Z 14006KT 20/18 A2982 RMK A01 T01970176  RH  092%=      5-min Rain = 0
KNOR 271100Z 14006KT 20/18 A2982 RMK A01 T01980176  RH  092%=      5-min Rain = 0
KNOR 271105Z 14007KT 20/18 A2982 RMK A01 T01970175  RH  092%=      5-min Rain = 0
KNOR 271110Z 15006KT 20/18 A2982 RMK A01 T01970175  RH  092%=      5-min Rain = 0
KNOR 271115Z 15007KT 20/17 A2982 RMK A01 T01960174  RH  092%=      5-min Rain = 0
KNOR 271120Z 15006KT 20/17 A2983 RMK A01 T01950174  RH  092%=      5-min Rain = 0
KNOR 271125Z 15005KT 20/17 A2983 RMK A01 T01950174  RH  092%=      5-min Rain = 0
KNOR 271130Z 15005KT 20/17 A2983 RMK A01 T01950174  RH  092%=      5-min Rain = 0
KNOR 271135Z 14004KT 19/17 A2983 RMK A01 T01940174  RH  092%=      5-min Rain = 0
KNOR 271140Z 14003KT 19/17 A2983 RMK A01 T01930173  RH  093%=      5-min Rain = 0
KNOR 271145Z 14003KT 19/17 A2983 RMK A01 T01930173  RH  093%=      5-min Rain = 0
KNOR 271150Z 13002KT 19/17 A2984 RMK A01 T01930173  RH  093%=      5-min Rain = 0
KNOR 271155Z 08001KT 19/17 A2984 RMK A01 T01900170  RH  093%=      5-min Rain = 0
KNOR 271200Z 07002KT 19/17 A2984 RMK A01 T01860168  RH  093%=      5-min Rain = 0
KNOR 271205Z 07003KT 19/17 A2984 RMK A01 T01860169  RH  094%=      5-min Rain = 0
KNOR 271210Z 09003KT 19/17 A2984 RMK A01 T01860170  RH  095%=      5-min Rain = 0
KNOR 271215Z 11004KT 19/17 A2984 RMK A01 T01890172  RH  095%=      5-min Rain = 0
KNOR 271220Z 12004KT 19/18 A2984 RMK A01 T01920175  RH  095%=      5-min Rain = 0
KNOR 271225Z 12004KT 19/18 A2984 RMK A01 T01940176  RH  094%=      5-min Rain = 0
KNOR 271230Z 10004KT 19/18 A2984 RMK A01 T01940176  RH  094%=      5-min Rain = 0
KNOR 271235Z 08004KT 19/18 A2985 RMK A01 T01940176  RH  094%=      5-min Rain = 0
KNOR 271240Z 08003KT 19/18 A2985 RMK A01 T01940176  RH  094%=      5-min Rain = 0
KNOR 271245Z 08003KT 20/18 A2985 RMK A01 T01950177  RH  094%=      5-min Rain = 0
KNOR 271250Z 09003KT 20/18 A2985 RMK A01 T01950177  RH  094%=      5-min Rain = 0
KNOR 271255Z 12003KT 20/18 A2985 RMK A01 T01970179  RH  094%=      5-min Rain = 0
KNOR 271300Z 12004KT 20/18 A2985 RMK A01 T01990180  RH  093%=      5-min Rain = 0
KNOR 271305Z 13003KT 20/18 A2985 RMK A01 T02010180  RH  093%=      5-min Rain = 0
KNOR 271310Z 12003KT 20/18 A2985 RMK A01 T02030181  RH  092%=      5-min Rain = 0
KNOR 271315Z 12004KT 21/18 A2985 RMK A01 T02050182  RH  092%=      5-min Rain = 0
KNOR 271320Z 13004KT 21/18 A2985 RMK A01 T02070183  RH  091%=      5-min Rain = 0
KNOR 271325Z 15006KT 21/19 A2985 RMK A01 T02090186  RH  091%=      5-min Rain = 0
KNOR 271330Z 15007KT 21/19 A2985 RMK A01 T02140188  RH  090%=      5-min Rain = 0
KNOR 271335Z 15007KT 22/19 A2985 RMK A01 T02170188  RH  089%=      5-min Rain = 0
KNOR 271340Z 16009KT 22/19 A2985 RMK A01 T02190188  RH  087%=      5-min Rain = 0
KNOR 271345Z 16009KT 22/19 A2985 RMK A01 T02210189  RH  087%=      5-min Rain = 0
KNOR 271350Z 16010KT 22/19 A2985 RMK A01 T02210188  RH  086%=      5-min Rain = 0
KNOR 271355Z 16009KT 22/19 A2985 RMK A01 T02210189  RH  086%=      5-min Rain = 0
KNOR 271400Z 15009KT 22/19 A2985 RMK A01 T02220190  RH  086%=      5-min Rain = 0
KNOR 271405Z 16010KT 22/19 A2985 RMK A01 T02230191  RH  086%=      5-min Rain = 0
KNOR 271410Z 16009KT 23/19 A2985 RMK A01 T02250192  RH  086%=      5-min Rain = 0
KNOR 271415Z 16010KT 23/19 A2985 RMK A01 T02270192  RH  085%=      5-min Rain = 0
KNOR 271420Z 16010KT 23/19 A2984 RMK A01 T02280193  RH  085%=      5-min Rain = 0
KNOR 271425Z 16010KT 23/19 A2984 RMK A01 T02310194  RH  084%=      5-min Rain = 0
KNOR 271430Z 16010KT 24/20 A2985 RMK A01 T02350195  RH  083%=      5-min Rain = 0
KNOR 271435Z 17011KT 24/19 A2985 RMK A01 T02360194  RH  082%=      5-min Rain = 0
KNOR 271440Z 17009KT 24/20 A2985 RMK A01 T02400196  RH  081%=      5-min Rain = 0
KNOR 271445Z 16008KT 25/20 A2984 RMK A01 T02460199  RH  080%=      5-min Rain = 0
KNOR 271450Z 16009KT 25/20 A2984 RMK A01 T02480198  RH  078%=      5-min Rain = 0
KNOR 271455Z 16008KT 25/20 A2984 RMK A01 T02500199  RH  077%=      5-min Rain = 0
KNOR 271500Z 17007KT 25/20 A2984 RMK A01 T02510200  RH  078%=      5-min Rain = 0
KNOR 271505Z 17007KT 25/20 A2984 RMK A01 T02470198  RH  079%=      5-min Rain = 0
KNOR 271510Z 18009G15KT 25/20 A2984 RMK A01 T02480196  RH  077%=      5-min Rain = 0
KNOR 271515Z 19010KT 25/20 A2984 RMK A01 T02520196  RH  075%=      5-min Rain = 0
KNOR 271520Z 19010KT 26/20 A2984 RMK A01 T02560197  RH  074%=      5-min Rain = 0
KNOR 271525Z 19012G17KT 26/20 A2984 RMK A01 T02610197  RH  072%=      5-min Rain = 0
KNOR 271530Z 20013G18KT 27/20 A2984 RMK A01 T02660196  RH  069%=      5-min Rain = 0
KNOR 271535Z 20013G19KT 27/20 A2984 RMK A01 T02700195  RH  067%=      5-min Rain = 0
KNOR 271540Z 20013G19KT 27/19 A2984 RMK A01 T02700193  RH  066%=      5-min Rain = 0
KNOR 271545Z 20013KT 27/19 A2984 RMK A01 T02690193  RH  067%=      5-min Rain = 0
KNOR 271550Z 19010G16KT 27/20 A2984 RMK A01 T02710195  RH  066%=      5-min Rain = 0
KNOR 271555Z 19011G16KT 27/19 A2983 RMK A01 T02730193  RH  065%=      5-min Rain = 0
KNOR 271600Z 20010G15KT 28/19 A2983 RMK A01 T02760194  RH  065%=      5-min Rain = 0
KNOR 271605Z 21010KT 27/19 A2983 RMK A01 T02730191  RH  064%=      5-min Rain = 0
KNOR 271610Z 19011G17KT 28/19 A2983 RMK A01 T02780194  RH  064%=      5-min Rain = 0
KNOR 271615Z 21012KT 28/19 A2983 RMK A01 T02820192  RH  062%=      5-min Rain = 0
KNOR 271620Z 21010KT 28/19 A2983 RMK A01 T02810192  RH  062%=      5-min Rain = 0
KNOR 271625Z 20013G18KT 28/19 A2983 RMK A01 T02810189  RH  061%=      5-min Rain = 0
KNOR 271630Z 20010KT 28/19 A2983 RMK A01 T02830193  RH  062%=      5-min Rain = 0
KNOR 271635Z 19011KT 28/19 A2983 RMK A01 T02800192  RH  062%=      5-min Rain = 0
KNOR 271640Z 19010G17KT 29/19 A2983 RMK A01 T02860193  RH  061%=      5-min Rain = 0
KNOR 271645Z 20011KT 29/19 A2983 RMK A01 T02880192  RH  059%=      5-min Rain = 0
KNOR 271650Z 21011KT 29/19 A2983 RMK A01 T02850189  RH  059%=      5-min Rain = 0
KNOR 271655Z 19011KT 29/19 A2983 RMK A01 T02880191  RH  059%=      5-min Rain = 0
KNOR 271700Z 19011G17KT 29/19 A2983 RMK A01 T02890189  RH  058%=      5-min Rain = 0
KNOR 271705Z 18012G17KT 29/19 A2982 RMK A01 T02900189  RH  057%=      5-min Rain = 0
KNOR 271710Z 18012G17KT 29/19 A2982 RMK A01 T02900188  RH  057%=      5-min Rain = 0
KNOR 271715Z 21011G16KT 29/19 A2982 RMK A01 T02920188  RH  057%=      5-min Rain = 0
KNOR 271720Z 19010KT 29/19 A2982 RMK A01 T02940189  RH  056%=      5-min Rain = 0
KNOR 271725Z 19011KT 30/19 A2982 RMK A01 T02970189  RH  055%=      5-min Rain = 0
KNOR 271730Z 20012G17KT 30/19 A2982 RMK A01 T02950187  RH  055%=      5-min Rain = 0
KNOR 271735Z 20010G16KT 29/19 A2981 RMK A01 T02920185  RH  055%=      5-min Rain = 0
KNOR 271740Z 21008G15KT 30/19 A2981 RMK A01 T02980190  RH  055%=      5-min Rain = 0
KNOR 271745Z 21009G16KT 30/19 A2981 RMK A01 T02950186  RH  055%=      5-min Rain = 0
KNOR 271750Z 19011KT 30/19 A2981 RMK A01 T02970185  RH  054%=      5-min Rain = 0
KNOR 271755Z 18010G15KT 30/19 A2981 RMK A01 T03010190  RH  054%=      5-min Rain = 0
KNOR 271800Z 21009G16KT 30/19 A2981 RMK A01 T03000188  RH  054%=      5-min Rain = 0
KNOR 271805Z 17010KT 30/19 A2981 RMK A01 T03010188  RH  054%=      5-min Rain = 0
KNOR 271810Z 18010G16KT 31/19 A298 RMK A01 T03050187  RH  052%=      5-min Rain = 0
KNOR 271815Z 20010KT 31/19 A298 RMK A01 T03050189  RH  053%=      5-min Rain = 0
KNOR 271820Z 20010G15KT 30/19 A298 RMK A01 T03040189  RH  053%=      5-min Rain = 0
KNOR 271825Z 19012G18KT 31/19 A298 RMK A01 T03060185  RH  051%=      5-min Rain = 0
KNOR 271830Z 19011KT 30/19 A298 RMK A01 T03030186  RH  052%=      5-min Rain = 0
KNOR 271835Z 19011G19KT 31/19 A2979 RMK A01 T03050187  RH  052%=      5-min Rain = 0
KNOR 271840Z 17011G16KT 31/19 A2979 RMK A01 T03070187  RH  052%=      5-min Rain = 0
KNOR 271845Z 18012G17KT 31/19 A2979 RMK A01 T03080186  RH  051%=      5-min Rain = 0
KNOR 271850Z 18011KT 31/19 A2979 RMK A01 T03080186  RH  051%=      5-min Rain = 0
KNOR 271855Z 20010G17KT 31/19 A2979 RMK A01 T03110186  RH  050%=      5-min Rain = 0
KNOR 271900Z 18013KT 31/19 A2979 RMK A01 T03100185  RH  050%=      5-min Rain = 0
KNOR 271905Z 19009G16KT 31/18 A2979 RMK A01 T03070184  RH  050%=      5-min Rain = 0
KNOR 271910Z 20012G17KT 31/19 A2979 RMK A01 T03100186  RH  050%=      5-min Rain = 0
KNOR 271915Z 20012KT 31/18 A2979 RMK A01 T03080184  RH  050%=      5-min Rain = 0
KNOR 271920Z 18011KT 31/18 A2978 RMK A01 T03070183  RH  050%=      5-min Rain = 0
KNOR 271925Z 18012G18KT 31/19 A2978 RMK A01 T03140187  RH  049%=      5-min Rain = 0
KNOR 271930Z 18010G16KT 31/19 A2978 RMK A01 T03110186  RH  050%=      5-min Rain = 0
KNOR 271935Z 18012KT 31/18 A2977 RMK A01 T03110179  RH  048%=      5-min Rain = 0
KNOR 271940Z 18011KT 31/19 A2977 RMK A01 T03140186  RH  049%=      5-min Rain = 0
KNOR 271945Z 17012G17KT 31/19 A2977 RMK A01 T03140186  RH  049%=      5-min Rain = 0
KNOR 271950Z 18011G16KT 32/19 A2977 RMK A01 T03160186  RH  049%=      5-min Rain = 0
KNOR 271955Z 19011G17KT 32/18 A2976 RMK A01 T03160181  RH  047%=      5-min Rain = 0
KNOR 272000Z 19010G16KT 32/18 A2976 RMK A01 T03190181  RH  046%=      5-min Rain = 0
KNOR 272005Z 17010KT 32/18 A2976 RMK A01 T03170181  RH  047%=      5-min Rain = 0
KNOR 272010Z 19013G18KT 32/18 A2975 RMK A01 T03180181  RH  046%=      5-min Rain = 0
KNOR 272015Z 18013KT 32/18 A2975 RMK A01 T03150178  RH  046%=      5-min Rain = 0
KNOR 272020Z 17011KT 32/18 A2975 RMK A01 T03160181  RH  047%=      5-min Rain = 0
KNOR 272025Z 17014KT 32/18 A2975 RMK A01 T03160176  RH  046%=      5-min Rain = 0
KNOR 272030Z 18011G16KT 32/18 A2975 RMK A01 T03180175  RH  045%=      5-min Rain = 0
KNOR 272035Z 17011KT 32/18 A2974 RMK A01 T03180175  RH  045%=      5-min Rain = 0
KNOR 272040Z 17013G18KT 32/18 A2974 RMK A01 T03200175  RH  044%=      5-min Rain = 0
KNOR 272045Z 18011KT 32/17 A2974 RMK A01 T03190172  RH  044%=      5-min Rain = 0
KNOR 272050Z 16013G18KT 32/18 A2974 RMK A01 T03200176  RH  044%=      5-min Rain = 0
KNOR 272055Z 17014G19KT 32/17 A2973 RMK A01 T03180170  RH  043%=      5-min Rain = 0
KNOR 272100Z 16013KT 32/17 A2973 RMK A01 T03180169  RH  043%=      5-min Rain = 0
KNOR 272105Z 16012G18KT 32/17 A2973 RMK A01 T03190173  RH  044%=      5-min Rain = 0
KNOR 272110Z 18012KT 32/18 A2973 RMK A01 T03220176  RH  044%=      5-min Rain = 0
KNOR 272115Z 18012G19KT 32/17 A2973 RMK A01 T03220171  RH  043%=      5-min Rain = 0
KNOR 272120Z 16013G18KT 32/17 A2972 RMK A01 T03190174  RH  044%=      5-min Rain = 0
KNOR 272125Z 17013G18KT 32/18 A2972 RMK A01 T03210176  RH  044%=      5-min Rain = 0
KNOR 272130Z 17014KT 32/17 A2972 RMK A01 T03230166  RH  041%=      5-min Rain = 0
KNOR 272135Z 18013G18KT 32/17 A2972 RMK A01 T03210167  RH  042%=      5-min Rain = 0
KNOR 272140Z 17013G18KT 32/18 A2971 RMK A01 T03190180  RH  046%=      5-min Rain = 0
KNOR 272145Z 16014KT 32/18 A2971 RMK A01 T03200179  RH  045%=      5-min Rain = 0
KNOR 272150Z 16013G18KT 32/18 A2971 RMK A01 T03190179  RH  046%=      5-min Rain = 0
KNOR 272155Z 16014G19KT 32/18 A2971 RMK A01 T03190180  RH  046%=      5-min Rain = 0
KNOR 272200Z 16015KT 32/18 A297 RMK A01 T03170179  RH  046%=      5-min Rain = 0
KNOR 272205Z 16016KT 32/18 A297 RMK A01 T03160180  RH  047%=      5-min Rain = 0
KNOR 272210Z 16017KT 32/18 A297 RMK A01 T03150179  RH  047%=      5-min Rain = 0
KNOR 272215Z 15016G21KT 31/18 A297 RMK A01 T03140180  RH  047%=      5-min Rain = 0
KNOR 272220Z 15014G19KT 32/18 A297 RMK A01 T03150184  RH  048%=      5-min Rain = 0
KNOR 272225Z 16013G18KT 32/18 A2969 RMK A01 T03150184  RH  048%=      5-min Rain = 0
KNOR 272230Z 16015G20KT 32/18 A2969 RMK A01 T03150184  RH  048%=      5-min Rain = 0
KNOR 272235Z 16016G21KT 32/18 A2969 RMK A01 T03150184  RH  048%=      5-min Rain = 0
KNOR 272240Z 16015G20KT 31/18 A2969 RMK A01 T03120181  RH  048%=      5-min Rain = 0
KNOR 272245Z 16017KT 31/18 A2969 RMK A01 T03110176  RH  047%=      5-min Rain = 0
KNOR 272250Z 16017G22KT 31/17 A2969 RMK A01 T03110171  RH  045%=      5-min Rain = 0
KNOR 272255Z 16016G22KT 31/17 A2968 RMK A01 T03130172  RH  045%=      5-min Rain = 0
KNOR 272300Z 16014G19KT 31/17 A2968 RMK A01 T03130173  RH  045%=      5-min Rain = 0
KNOR 272305Z 16015KT 31/17 A2968 RMK A01 T03130168  RH  044%=      5-min Rain = 0
KNOR 272310Z 17015G20KT 31/16 A2968 RMK A01 T03130164  RH  043%=      5-min Rain = 0
KNOR 272315Z 16017KT 31/17 A2968 RMK A01 T03120167  RH  044%=      5-min Rain = 0
KNOR 272320Z 16016G22KT 31/17 A2968 RMK A01 T03110170  RH  045%=      5-min Rain = 0
KNOR 272325Z 16016G21KT 31/17 A2968 RMK A01 T03100172  RH  046%=      5-min Rain = 0
KNOR 272330Z 16015G20KT 31/17 A2968 RMK A01 T03100174  RH  046%=      5-min Rain = 0
KNOR 272335Z 15016G21KT 31/18 A2967 RMK A01 T03090179  RH  048%=      5-min Rain = 0
KNOR 272340Z 15014G20KT 31/18 A2967 RMK A01 T03090182  RH  049%=      5-min Rain = 0
KNOR 272345Z 16017G22KT 31/17 A2967 RMK A01 T03070173  RH  047%=      5-min Rain = 0
KNOR 272350Z 15015G20KT 31/17 A2967 RMK A01 T03070172  RH  047%=      5-min Rain = 0
KNOR 272355Z 16016G22KT 31/17 A2967 RMK A01 T03060174  RH  048%=      5-min Rain = 0
KNOR 280000Z 15013G18KT 31/18 A2967 RMK A01 T03060178  RH  049%=      5-min Rain = 0
KNOR 280005Z 16014G20KT 31/18 A2967 RMK A01 T03050176  RH  049%=      5-min Rain = 0
KNOR 280010Z 16014G19KT 30/18 A2967 RMK A01 T03030175  RH  049%=      5-min Rain = 0
KNOR 280015Z 16015KT 30/18 A2967 RMK A01 T03020175  RH  049%=      5-min Rain = 0
KNOR 280020Z 15013G18KT 30/18 A2967 RMK A01 T03010179  RH  050%=      5-min Rain = 0
KNOR 280025Z 15012G18KT 30/18 A2967 RMK A01 T03000182  RH  052%=      5-min Rain = 0
KNOR 280030Z 15012G17KT 30/19 A2967 RMK A01 T02980185  RH  053%=      5-min Rain = 0
KNOR 280035Z 15012G20KT 30/19 A2967 RMK A01 T02960185  RH  054%=      5-min Rain = 0
KNOR 280040Z 15013KT 30/19 A2967 RMK A01 T02950187  RH  055%=      5-min Rain = 0
KNOR 280045Z 15013G18KT 29/19 A2967 RMK A01 T02930187  RH  056%=      5-min Rain = 0
KNOR 280050Z 15014G19KT 29/19 A2967 RMK A01 T02910186  RH  056%=      5-min Rain = 0
KNOR 280055Z 15014G19KT 29/19 A2967 RMK A01 T02900185  RH  056%=      5-min Rain = 0
KNOR 280100Z 15012G19KT 29/19 A2967 RMK A01 T02880185  RH  057%=      5-min Rain = 0
KNOR 280105Z 15013KT 29/19 A2967 RMK A01 T02850185  RH  058%=      5-min Rain = 0
KNOR 280110Z 15013G18KT 28/19 A2967 RMK A01 T02830186  RH  059%=      5-min Rain = 0
KNOR 280115Z 15014KT 28/19 A2967 RMK A01 T02820185  RH  059%=      5-min Rain = 0
KNOR 280120Z 15013G18KT 28/18 A2967 RMK A01 T02800184  RH  059%=      5-min Rain = 0
KNOR 280125Z 15012G18KT 28/18 A2967 RMK A01 T02780184  RH  060%=      5-min Rain = 0
KNOR 280130Z 15012G18KT 28/18 A2967 RMK A01 T02750184  RH  061%=      5-min Rain = 0
KNOR 280135Z 15012G17KT 27/18 A2967 RMK A01 T02740184  RH  061%=      5-min Rain = 0
KNOR 280140Z 15011KT 27/18 A2966 RMK A01 T02720184  RH  062%=      5-min Rain = 0
KNOR 280145Z 15011KT 27/19 A2966 RMK A01 T02700185  RH  063%=      5-min Rain = 0
KNOR 280150Z 15011KT 27/19 A2966 RMK A01 T02690185  RH  063%=      5-min Rain = 0
KNOR 280155Z 15012KT 27/19 A2966 RMK A01 T02680185  RH  064%=      5-min Rain = 0
KNOR 280200Z 15011KT 27/19 A2966 RMK A01 T02660186  RH  065%=      5-min Rain = 0
KNOR 280205Z 15011KT 26/19 A2966 RMK A01 T02640187  RH  066%=      5-min Rain = 0
KNOR 280210Z 14011KT 26/19 A2967 RMK A01 T02630187  RH  067%=      5-min Rain = 0
KNOR 280215Z 14011G17KT 26/19 A2967 RMK A01 T02600188  RH  068%=      5-min Rain = 0
KNOR 280220Z 14012G17KT 26/19 A2966 RMK A01 T02590190  RH  069%=      5-min Rain = 0
KNOR 280225Z 14014KT 26/19 A2966 RMK A01 T02600191  RH  069%=      5-min Rain = 0
KNOR 280230Z 15014KT 26/19 A2966 RMK A01 T02600190  RH  069%=      5-min Rain = 0
KNOR 280235Z 14014G19KT 26/19 A2966 RMK A01 T02600190  RH  069%=      5-min Rain = 0
KNOR 280240Z 15014KT 26/19 A2966 RMK A01 T02590189  RH  069%=      5-min Rain = 0
KNOR 280245Z 15015KT 26/19 A2966 RMK A01 T02590188  RH  068%=      5-min Rain = 0
KNOR 280250Z 15015G20KT 26/19 A2966 RMK A01 T02590187  RH  068%=      5-min Rain = 0
KNOR 280255Z 15015G21KT 26/19 A2967 RMK A01 T02580187  RH  068%=      5-min Rain = 0
KNOR 280300Z 15015G21KT 26/19 A2967 RMK A01 T02560186  RH  069%=      5-min Rain = 0
KNOR 280305Z 15015G20KT 26/19 A2967 RMK A01 T02550186  RH  069%=      5-min Rain = 0
KNOR 280310Z 15013G20KT 25/19 A2967 RMK A01 T02530186  RH  070%=      5-min Rain = 0
KNOR 280315Z 15013KT 25/19 A2967 RMK A01 T02520186  RH  071%=      5-min Rain = 0
KNOR 280320Z 15014G19KT 25/19 A2967 RMK A01 T02510186  RH  071%=      5-min Rain = 0
KNOR 280325Z 15015G20KT 25/19 A2967 RMK A01 T02510185  RH  071%=      5-min Rain = 0
KNOR 280330Z 15015G21KT 25/18 A2967 RMK A01 T02520184  RH  070%=      5-min Rain = 0
KNOR 280335Z 15015G20KT 25/18 A2967 RMK A01 T02510184  RH  070%=      5-min Rain = 0
KNOR 280340Z 15014KT 25/18 A2967 RMK A01 T02490184  RH  071%=      5-min Rain = 0
KNOR 280345Z 15015KT 25/18 A2967 RMK A01 T02470183  RH  071%=      5-min Rain = 0
KNOR 280350Z 15015G22KT 25/18 A2967 RMK A01 T02480183  RH  071%=      5-min Rain = 0
KNOR 280355Z 15016KT 25/18 A2967 RMK A01 T02470182  RH  071%=      5-min Rain = 0
KNOR 280400Z 15016G22KT 25/18 A2967 RMK A01 T02470182  RH  071%=      5-min Rain = 0
KNOR 280405Z 15016G21KT 25/18 A2967 RMK A01 T02450182  RH  071%=      5-min Rain = 0
KNOR 280410Z 15016G21KT 25/18 A2967 RMK A01 T02450181  RH  071%=      5-min Rain = 0
KNOR 280415Z 15016G21KT 24/18 A2967 RMK A01 T02440181  RH  071%=      5-min Rain = 0
KNOR 280420Z 15016G23KT 24/18 A2967 RMK A01 T02430181  RH  072%=      5-min Rain = 0
KNOR 280425Z 15016G21KT 24/18 A2967 RMK A01 T02430181  RH  072%=      5-min Rain = 0
KNOR 280430Z 15016G22KT 24/18 A2967 RMK A01 T02420181  RH  072%=      5-min Rain = 0
KNOR 280435Z 15017G25KT 24/18 A2967 RMK A01 T02420181  RH  072%=      5-min Rain = 0
KNOR 280440Z 15017G23KT 24/18 A2967 RMK A01 T02410181  RH  073%=      5-min Rain = 0
KNOR 280445Z 15017G24KT 24/18 A2967 RMK A01 T02410181  RH  073%=      5-min Rain = 0
KNOR 280450Z 16018G24KT 24/18 A2967 RMK A01 T02410182  RH  073%=      5-min Rain = 0
KNOR 280455Z 15018G23KT 24/18 A2967 RMK A01 T02410182  RH  074%=      5-min Rain = 0

Page generated in 0.0198 seconds.